Logo Frankfurt-Egelsbach Airport
Hessische Flugplatz GmbH Egelsbach
Telefon : +49 (0)6103-9418-0
E-Mail : fly@egelsbach-airport.com
   

 

 

 

 

 

 

Aktuelle Daten

Öffnungszeiten: 0800 LT - ECET (max 2100 LT)

PPR: 0700 LT - 0800 LT, ECET - 2100 LT Tel +49 6103 9418-0

Behördlich vorgeschriebenes Briefing für NVFR-Anflüge mit Jets und Turboprops für die Saison 2015/2016

» Behördlich vorgeschriebenes Briefing für NVFR-Anflüge mit Jets und Turboprops für die Saison 2015/2016

 

Webcam

Webcam

Wetterdaten

Beobachtung von : 29-APR-2016 - 15:51 UTC
Sicht : ausgefallen
Wolkenuntergrenze : nicht feststellbar
Wind : 240 / 7 kt
Wind extrem (10 min) : 190-270 / 4-10 kt
Temperatur : 12.3° Celsius
Taupunkt : -1° Celsius
QNH : 1017.0 hPa
Dichtehöhe : 50 ft

Daten werden automatisch generiert. Verfügbarkeit und Richtigkeit ohne Gewähr.
Mit freundlicher Unterstützung des Deutschen Wetterdienstes

Metar


675
SADL31 EDFE 291550
METAR EDFE 291550Z 23006KT CAVOK 12/M00 Q1017=

Notam

E0818/16 - CHANGES TO AIR TRAFFIC LAW AND AIRSPACE CHANGES AT FRANKFURT-EGELSBACH AIRFIELD ON 31 MAR 2016. FOR DETAILED INFORMATION SEE AIP AIC VFR 01/16 AND AIP VFR AMDT NR. 03 EFFECTIVE 17 MAR 2016. 17 MAR 08:35 2016 UNTIL 17 JUN 23:59 2016.

E0969/16 - CRANE APRX 1NM E OF THR 26. ELEV 500FT. DAY AND NIGHT MARKED. 18 APR 00:00 2016 UNTIL 16 MAY 23:59 2016.